ESSP/NRK METAR and TAF weather

Enter ICAO airport designator
Station Type Date Time Source
ESSP METAR 2018/01/22 09:20 UTC NOAA

ESSP 220920Z 00000KT 9999 OVC011 M05/M05 Q1015 R27/890135


Station Type Date Time Source
ESSP Decoded METAR 2018/01/22 09:20 UTC NOAA

Norrkoping, Sweden (ESSP) 58-35N 016-09E 0M
Jan 22, 2018 - 04:20 AM EST / 2018.01.22 0920 UTC
Wind: Calm:0
Visibility: greater than 7 mile(s):0
Sky conditions: overcast
Temperature: 23 F (-5 C)
Dew Point: 23 F (-5 C)
Relative Humidity: 100%
Pressure (altimeter): 29.97 in. Hg (1015 hPa)
ob: ESSP 220920Z 00000KT 9999 OVC011 M05/M05 Q1015 R27/890135
cycle: 9

Station Type Date Time Source
ESSP TAF 2018/01/01 02:31 UTC NOAA

TAF ESSP 010130Z 0102/0206 16002KT 9999 BKN004 PROB40 0102/0106 4000 BR SCT004


Example: see airport list